Rueter, Missouri
Current Conditions -  °F | °C
As of 11:45 AM on Sunday 25 Jan 2015 (Local Time) from KBBG Reporting Station
Light Rain Light Rain  
Wind Chill: 34°   Ceiling: 3200
Heat Index: 41°   Visibility: 5mi
Dew Point: 39°   Wind: 13mph
Humidity: 93%   Direction: 300°WNW
Pressure: 29.74"   Gusts: 18mph
Location:  36.61°N, 92.87°W
Report Text: KBBG 251745Z 30011G16KT 5SM -RA BR SCT018 OVC032 05/04 A2974
Loading
Personal Weather Stations






























Interactive Weather Map New forecast layout! Learn more

10-Day Weather Forecast

Advertisements
Track Severe Weather on mobile